Time;durP1;ratioP1;P1;durP2;ratioP2;P2;SDS_P1;SDS_P2;PMS_P1;PMS_P2;Temp;Humidity;BMP_temperature;BMP_pressure;BME280_temperature;BME280_humidity;BME280_pressure;Samples;Min_cycle;Max_cycle;Signal;HPM_P1;HPM_P2
2023/06/09 00:01:12;;;;;;;;;21.25;19.75;;;;;25.71;32.99;100518.19;4961066;28;45267;-59
2023/06/09 00:03:39;;;;;;;;;22.25;20.00;;;;;25.67;33.05;100514.88;4961015;28;45408;-59
2023/06/09 00:06:05;;;;;;;;;22.75;20.25;;;;;25.64;33.36;100510.59;4960794;28;45512;-59
2023/06/09 00:08:31;;;;;;;;;21.00;18.00;;;;;25.59;33.46;100502.06;4960886;28;45370;-59
2023/06/09 00:10:56;;;;;;;;;22.00;19.75;;;;;25.59;33.78;100502.06;4960930;28;45283;-59
2023/06/09 00:13:22;;;;;;;;;21.50;20.50;;;;;25.55;33.54;100502.44;4960948;28;45329;-59
2023/06/09 00:15:47;;;;;;;;;22.00;19.00;;;;;25.54;33.56;100498.88;4959189;28;46580;-59
2023/06/09 00:18:15;;;;;;;;;19.00;17.75;;;;;25.50;33.44;100492.06;4960792;28;48780;-59
2023/06/09 00:20:42;;;;;;;;;20.25;19.50;;;;;25.48;33.27;100494.00;4974289;28;45521;-59
2023/06/09 00:23:08;;;;;;;;;21.50;19.75;;;;;25.46;33.73;100496.81;4960847;28;45174;-59
2023/06/09 00:25:33;;;;;;;;;21.00;20.25;;;;;25.44;33.73;100492.56;4960373;28;45244;-59
2023/06/09 00:27:59;;;;;;;;;22.75;19.50;;;;;25.42;33.75;100489.13;4960700;28;45264;-59
2023/06/09 00:30:24;;;;;;;;;17.75;16.75;;;;;25.41;33.45;100492.81;4978609;28;45289;-59
2023/06/09 00:32:49;;;;;;;;;22.50;19.75;;;;;25.37;33.68;100483.25;4960908;28;45326;-59
2023/06/09 00:35:15;;;;;;;;;18.75;18.75;;;;;25.37;34.00;100484.13;4960158;28;45337;-59
2023/06/09 00:37:40;;;;;;;;;22.25;22.25;;;;;25.35;34.09;100479.84;4960742;28;45343;-59
2023/06/09 00:40:07;;;;;;;;;20.25;20.00;;;;;25.34;34.01;100483.50;4960456;28;45362;-59
2023/06/09 00:42:33;;;;;;;;;22.75;22.00;;;;;25.33;34.19;100479.94;4960516;28;45441;-60
2023/06/09 00:44:58;;;;;;;;;20.75;18.25;;;;;25.30;33.75;100472.97;4960165;28;46201;-60
2023/06/09 00:47:26;;;;;;;;;23.00;21.00;;;;;25.26;34.29;100471.50;4960597;28;45316;-60
2023/06/09 00:49:52;;;;;;;;;20.25;18.75;;;;;25.25;34.21;100467.13;4960281;28;45372;-60
2023/06/09 00:52:18;;;;;;;;;22.25;21.25;;;;;25.23;34.26;100463.72;4960495;28;45267;-60
2023/06/09 00:54:43;;;;;;;;;19.50;18.50;;;;;25.23;34.44;100473.59;4959984;28;45461;-60
2023/06/09 00:57:10;;;;;;;;;22.75;21.50;;;;;25.20;34.06;100457.72;4975478;28;45247;-60
2023/06/09 00:59:36;;;;;;;;;22.75;20.50;;;;;25.19;34.29;100462.22;4960301;28;45271;-60
2023/06/09 01:02:04;;;;;;;;;23.75;22.50;;;;;25.18;34.07;100465.03;4960379;28;45586;-59
2023/06/09 01:04:32;;;;;;;;;21.50;20.25;;;;;25.16;34.45;100462.50;4960200;28;45311;-59
2023/06/09 01:07:20;;;;;;;;;20.75;20.75;;;;;25.14;33.91;100456.38;4959949;28;45267;-59
2023/06/09 01:10:09;;;;;;;;;20.00;18.25;;;;;25.12;34.21;100458.34;4960930;28;45362;-59
2023/06/09 01:12:57;;;;;;;;;22.25;21.00;;;;;25.10;34.39;100449.53;4963609;28;45327;-59
2023/06/09 01:15:28;;;;;;;;;20.00;20.00;;;;;25.07;34.71;100457.81;4963158;28;46239;-61
2023/06/09 01:17:58;;;;;;;;;19.00;19.00;;;;;25.05;34.55;100449.06;4963692;28;45573;-60
2023/06/09 01:20:46;;;;;;;;;21.25;20.00;;;;;25.03;34.43;100451.00;4976764;28;46499;-60
2023/06/09 01:23:39;;;;;;;;;21.00;20.75;;;;;25.02;34.40;100451.97;4963453;28;45275;-60
2023/06/09 01:26:07;;;;;;;;;21.00;21.00;;;;;24.97;34.99;100444.28;4963168;28;45535;-60
2023/06/09 01:28:34;;;;;;;;;19.75;19.75;;;;;24.91;34.57;100440.25;4978237;28;45372;-60
2023/06/09 01:31:02;;;;;;;;;21.50;21.50;;;;;24.93;34.66;100443.69;4981541;28;45364;-60
2023/06/09 01:33:27;;;;;;;;;21.25;20.75;;;;;24.90;34.65;100445.75;4963023;28;45528;-60
2023/06/09 01:35:54;;;;;;;;;21.50;21.50;;;;;24.88;35.18;100437.81;4963007;28;46510;-60
2023/06/09 01:38:21;;;;;;;;;22.00;21.25;;;;;24.84;34.80;100441.69;4963096;28;45265;-60
2023/06/09 01:40:47;;;;;;;;;22.25;22.00;;;;;24.79;34.94;100439.41;4963351;28;45256;-60
2023/06/09 01:43:12;;;;;;;;;25.00;23.00;;;;;24.79;34.85;100441.22;4977974;28;45374;-60
2023/06/09 01:45:38;;;;;;;;;20.75;18.25;;;;;24.76;35.33;100438.78;4962979;28;45537;-60
2023/06/09 01:48:12;;;;;;;;;22.50;22.25;;;;;24.73;35.21;100439.88;4961746;28;45774;-60
2023/06/09 01:50:46;;;;;;;;;20.25;20.25;;;;;24.70;35.16;100434.75;4963249;28;45252;-60
2023/06/09 01:53:18;;;;;;;;;23.00;21.25;;;;;24.66;35.23;100436.81;4962906;28;45438;-60
2023/06/09 01:55:54;;;;;;;;;21.25;20.50;;;;;24.63;35.39;100438.88;4962732;28;45408;-60
2023/06/09 01:58:25;;;;;;;;;22.50;22.25;;;;;24.60;35.32;100429.22;4963054;28;45177;-60
2023/06/09 02:00:52;;;;;;;;;23.25;21.75;;;;;24.59;35.22;100434.69;4962925;28;45219;-60
2023/06/09 02:03:22;;;;;;;;;20.75;20.75;;;;;24.57;35.20;100428.59;4962857;28;45259;-60
2023/06/09 02:05:51;;;;;;;;;21.00;19.25;;;;;24.53;35.24;100427.13;4962635;28;45480;-60
2023/06/09 02:08:17;;;;;;;;;21.75;20.00;;;;;24.52;35.51;100425.44;4962783;28;45227;-60
2023/06/09 02:10:43;;;;;;;;;25.00;22.75;;;;;24.49;35.27;100430.06;4962627;28;45235;-60
2023/06/09 02:13:16;;;;;;;;;24.50;18.50;;;;;24.50;35.37;100425.53;4962773;28;45532;-60
2023/06/09 02:15:45;;;;;;;;;20.00;19.00;;;;;24.47;35.39;100417.72;4962419;28;45350;-60
2023/06/09 02:18:11;;;;;;;;;18.50;17.50;;;;;24.48;35.46;100419.44;4962561;28;45381;-60
2023/06/09 02:20:39;;;;;;;;;22.75;20.25;;;;;24.46;35.92;100421.38;4976058;28;45391;-60
2023/06/09 02:23:05;;;;;;;;;24.75;22.25;;;;;24.43;35.65;100417.09;4962508;28;45528;-60
2023/06/09 02:25:32;;;;;;;;;23.00;21.25;;;;;24.39;35.80;100412.94;4962079;28;47178;-60
2023/06/09 02:27:58;;;;;;;;;23.25;21.75;;;;;24.36;36.04;100404.28;4962481;28;45395;-60
2023/06/09 02:30:23;;;;;;;;;21.00;20.00;;;;;24.36;35.93;100409.66;4980230;28;45304;-60
2023/06/09 02:32:49;;;;;;;;;28.00;23.25;;;;;24.32;35.97;100401.81;4962362;28;47109;-60
2023/06/09 02:35:14;;;;;;;;;23.50;20.75;;;;;24.27;35.95;100404.00;4961860;28;46317;-60
2023/06/09 02:37:41;;;;;;;;;23.00;23.00;;;;;24.28;36.03;100404.88;4977542;28;45696;-60
2023/06/09 02:40:08;;;;;;;;;26.75;24.00;;;;;24.25;36.05;100394.34;4962183;28;45330;-60
2023/06/09 02:42:34;;;;;;;;;29.75;27.75;;;;;24.24;36.13;100400.69;4962309;28;45480;-60
2023/06/09 02:44:59;;;;;;;;;28.00;26.00;;;;;24.22;35.95;100403.50;4962187;28;46887;-63
2023/06/09 02:47:25;;;;;;;;;18.75;18.50;;;;;24.19;36.15;100401.06;4962352;28;45224;-60
2023/06/09 02:49:50;;;;;;;;;26.00;21.25;;;;;24.17;35.97;100394.97;4961673;28;50112;-60
2023/06/09 02:52:16;;;;;;;;;20.25;19.25;;;;;24.16;36.02;100396.81;4962371;28;45338;-59
2023/06/09 02:54:41;;;;;;;;;25.50;22.75;;;;;24.14;36.15;100397.91;4961756;28;46396;-60
2023/06/09 02:57:07;;;;;;;;;21.75;21.75;;;;;24.14;36.24;100406.78;4962134;28;49768;-60
2023/06/09 02:59:33;;;;;;;;;25.50;23.50;;;;;24.12;36.26;100397.16;4962030;28;45307;-60
2023/06/09 03:01:58;;;;;;;;;25.00;25.00;;;;;24.09;36.31;100392.88;4962056;28;45457;-60
2023/06/09 03:04:23;;;;;;;;;22.50;22.25;;;;;24.08;36.13;100395.69;4961776;28;46548;-60
2023/06/09 03:06:50;;;;;;;;;22.75;21.50;;;;;24.07;36.46;100404.69;4961817;28;45280;-60
2023/06/09 03:09:16;;;;;;;;;21.25;20.25;;;;;24.04;36.42;100403.09;4961918;28;45399;-60
2023/06/09 03:11:41;;;;;;;;;18.25;18.25;;;;;24.05;36.43;100403.94;4961768;28;45326;-60
2023/06/09 03:14:08;;;;;;;;;21.75;19.75;;;;;24.01;36.54;100406.88;4961519;28;46687;-60
2023/06/09 03:16:34;;;;;;;;;24.00;22.75;;;;;23.98;36.28;100409.78;4961881;28;45417;-60
2023/06/09 03:19:00;;;;;;;;;11.75;11.75;;;;;23.97;36.41;100409.91;4964872;28;45426;-60
2023/06/09 03:21:25;;;;;;;;;26.25;24.75;;;;;23.95;36.54;100406.47;4970221;28;45430;-60
2023/06/09 03:23:51;;;;;;;;;45.75;38.00;;;;;23.93;36.46;100408.44;4961408;28;45181;-60
2023/06/09 03:26:17;;;;;;;;;26.50;24.75;;;;;23.92;36.73;100406.72;4961513;28;45231;-60
2023/06/09 03:28:43;;;;;;;;;24.25;21.25;;;;;23.91;36.44;100410.34;4961700;28;45453;-60
2023/06/09 03:31:09;;;;;;;;;30.25;30.00;;;;;23.89;36.99;100407.78;4978962;28;45429;-60
2023/06/09 03:33:35;;;;;;;;;27.75;24.75;;;;;23.90;36.83;100413.97;4960619;28;45436;-60
2023/06/09 03:36:00;;;;;;;;;21.75;20.50;;;;;23.86;36.86;100411.53;4961194;28;45512;-60
2023/06/09 03:38:26;;;;;;;;;28.00;25.50;;;;;23.84;36.46;100404.59;4961517;28;45299;-60
2023/06/09 03:40:51;;;;;;;;;24.50;22.25;;;;;23.84;36.81;100409.94;4961363;28;45350;-60
2023/06/09 03:43:17;;;;;;;;;22.75;21.25;;;;;23.83;36.82;100409.06;4961103;28;45303;-60
2023/06/09 03:45:42;;;;;;;;;28.00;27.25;;;;;23.81;37.01;100404.81;4959958;28;45406;-61
2023/06/09 03:48:07;;;;;;;;;25.50;22.25;;;;;23.79;36.86;100412.97;4961326;28;45497;-61
2023/06/09 03:50:33;;;;;;;;;25.00;22.75;;;;;23.78;36.79;100411.25;4961131;28;45418;-61
2023/06/09 03:52:58;;;;;;;;;26.00;24.00;;;;;23.77;37.00;100411.38;4960676;28;45424;-60
2023/06/09 03:55:24;;;;;;;;;24.25;24.25;;;;;23.74;36.83;100400.88;4961112;28;45407;-61
2023/06/09 03:57:50;;;;;;;;;21.00;21.00;;;;;23.74;36.99;100400.88;4960934;28;45231;-61
2023/06/09 04:00:17;;;;;;;;;36.25;30.25;;;;;23.72;37.01;100400.97;4961165;28;45572;-61
2023/06/09 04:02:43;;;;;;;;;32.50;29.00;;;;;23.72;37.01;100410.88;4961022;28;45239;-60
2023/06/09 04:05:08;;;;;;;;;24.50;23.75;;;;;23.68;37.13;100408.44;4960841;28;45598;-60
2023/06/09 04:07:34;;;;;;;;;26.00;23.50;;;;;23.66;37.00;100406.81;4961106;28;45228;-60
2023/06/09 04:09:59;;;;;;;;;28.00;26.25;;;;;23.65;37.23;100405.13;4960988;28;45454;-60
2023/06/09 04:12:25;;;;;;;;;26.25;24.50;;;;;23.64;37.17;100404.25;4960885;28;45769;-60
2023/06/09 04:14:50;;;;;;;;;21.50;19.50;;;;;23.59;37.46;100403.72;4960995;28;45393;-60
2023/06/09 04:17:15;;;;;;;;;22.25;20.75;;;;;23.58;37.19;100410.06;4959692;28;45418;-60
2023/06/09 04:19:41;;;;;;;;;24.25;23.75;;;;;23.57;37.20;100405.69;4970702;28;46567;-60
2023/06/09 04:22:07;;;;;;;;;26.25;24.25;;;;;23.56;37.48;100403.09;4964013;28;45397;-60
2023/06/09 04:24:33;;;;;;;;;36.50;31.50;;;;;23.55;37.38;100410.31;4960944;28;45314;-60
2023/06/09 04:27:00;;;;;;;;;45.50;39.00;;;;;23.53;37.27;100405.06;4960583;28;45466;-61
2023/06/09 04:29:25;;;;;;;;;18.25;17.25;;;;;23.50;37.22;100407.09;4971255;28;45492;-60
2023/06/09 04:31:58;;;;;;;;;22.75;21.50;;;;;23.49;37.66;100414.28;4967363;28;46971;-59
2023/06/09 04:34:25;;;;;;;;;22.25;21.00;;;;;23.49;37.38;100411.59;4960774;28;45484;-59
2023/06/09 04:36:53;;;;;;;;;29.75;26.25;;;;;23.46;37.44;100411.84;4960322;28;45220;-59
2023/06/09 04:39:19;;;;;;;;;23.75;22.25;;;;;23.44;37.66;100411.09;4960525;28;45527;-59
2023/06/09 04:41:47;;;;;;;;;22.25;22.25;;;;;23.41;37.72;100405.97;4960322;28;46929;-59
2023/06/09 04:44:13;;;;;;;;;23.75;21.50;;;;;23.37;37.68;100408.00;4960476;28;45355;-59
2023/06/09 04:46:39;;;;;;;;;24.25;23.25;;;;;23.40;37.65;100406.09;4963864;28;45441;-59
2023/06/09 04:49:11;;;;;;;;;29.75;25.25;;;;;23.37;37.72;100418.72;4964112;28;45323;-59
2023/06/09 04:51:46;;;;;;;;;23.00;23.00;;;;;23.36;37.78;100417.00;4963698;28;45361;-59
2023/06/09 04:54:20;;;;;;;;;24.25;22.50;;;;;23.35;37.88;100412.63;4963819;28;45347;-59
2023/06/09 04:56:52;;;;;;;;;27.00;24.75;;;;;23.32;37.89;100414.66;4963831;28;45338;-59
2023/06/09 04:59:17;;;;;;;;;27.75;24.00;;;;;23.30;38.37;100421.97;4963782;28;45229;-59
2023/06/09 05:01:46;;;;;;;;;26.25;25.00;;;;;23.29;37.86;100421.09;4963819;28;45285;-59
2023/06/09 05:04:12;;;;;;;;;25.75;25.25;;;;;23.30;38.40;100427.34;4963673;28;45271;-59
2023/06/09 05:06:37;;;;;;;;;24.75;23.50;;;;;23.30;38.23;100419.28;4963586;28;45449;-60
2023/06/09 05:09:07;;;;;;;;;24.25;20.50;;;;;23.29;37.97;100421.09;4962427;28;45418;-59
2023/06/09 05:11:34;;;;;;;;;24.50;24.50;;;;;23.26;37.84;100420.47;4963572;28;46168;-59
2023/06/09 05:13:59;;;;;;;;;24.50;24.50;;;;;23.26;37.71;100418.66;4963498;28;45322;-58
2023/06/09 05:16:28;;;;;;;;;27.50;25.75;;;;;23.26;37.80;100418.66;4963639;28;45327;-59
2023/06/09 05:18:55;;;;;;;;;23.50;23.25;;;;;23.24;38.04;100420.59;4967319;28;45334;-59
2023/06/09 05:21:23;;;;;;;;;24.75;23.25;;;;;23.26;38.06;100413.28;4972630;28;46156;-58
2023/06/09 05:23:49;;;;;;;;;28.50;25.00;;;;;23.26;38.45;100410.63;4967307;28;45296;-59
2023/06/09 05:26:15;;;;;;;;;25.00;23.75;;;;;23.26;38.30;100417.78;4982948;28;45385;-59
2023/06/09 05:28:40;;;;;;;;;26.25;24.00;;;;;23.27;38.22;100422.19;4982410;28;45467;-59
2023/06/09 05:31:06;;;;;;;;;26.25;24.25;;;;;23.28;38.23;100423.91;4980563;28;45385;-59
2023/06/09 05:33:31;;;;;;;;;26.50;23.75;;;;;23.29;38.29;100429.13;4963114;28;45446;-59
2023/06/09 05:35:56;;;;;;;;;21.50;21.50;;;;;23.28;38.50;100423.91;4963322;28;45461;-57
2023/06/09 05:38:23;;;;;;;;;24.75;23.00;;;;;23.30;38.50;100433.53;4963161;28;45396;-57
2023/06/09 05:40:48;;;;;;;;;27.50;25.50;;;;;23.29;38.61;100431.81;4962789;28;47330;-57
2023/06/09 05:43:14;;;;;;;;;23.50;23.50;;;;;23.31;38.25;100434.41;4971847;28;45322;-58
2023/06/09 05:45:40;;;;;;;;;28.75;28.25;;;;;23.28;38.38;100427.47;4982185;28;45523;-58
2023/06/09 05:48:05;;;;;;;;;37.00;30.75;;;;;23.33;38.51;100443.19;4982443;28;45586;-58
2023/06/09 05:50:31;;;;;;;;;27.00;26.75;;;;;23.32;38.42;100438.78;4976866;28;45308;-58
2023/06/09 05:52:56;;;;;;;;;29.00;24.25;;;;;23.31;38.59;100445.13;4982462;28;45275;-58
2023/06/09 05:55:21;;;;;;;;;21.50;21.50;;;;;23.32;38.63;100438.78;4980218;28;45203;-58
2023/06/09 05:57:46;;;;;;;;;26.00;23.50;;;;;23.30;38.58;100448.78;4974622;28;51357;-58
2023/06/09 06:00:13;;;;;;;;;25.75;25.25;;;;;23.28;38.74;100440.84;4979035;28;45379;-59
2023/06/09 06:02:38;;;;;;;;;25.50;24.50;;;;;23.28;38.71;100440.84;4982208;28;45384;-58
2023/06/09 06:05:07;;;;;;;;;29.25;26.50;;;;;23.28;38.69;100442.66;4981865;28;45481;-59
2023/06/09 06:07:38;;;;;;;;;29.75;26.50;;;;;23.31;38.63;100450.50;4982137;28;45413;-59
2023/06/09 06:10:05;;;;;;;;;26.25;23.25;;;;;23.33;38.87;100449.41;4981420;28;47040;-59
2023/06/09 06:12:31;;;;;;;;;29.50;22.25;;;;;23.33;38.90;100454.78;4996975;28;45448;-58
2023/06/09 06:14:57;;;;;;;;;19.25;19.25;;;;;23.36;38.94;100449.19;4972425;28;45453;-58
2023/06/09 06:17:22;;;;;;;;;25.00;24.00;;;;;23.36;38.67;100446.50;4977121;28;45279;-59
2023/06/09 06:19:47;;;;;;;;;27.50;26.25;;;;;23.40;38.82;100447.13;4970923;28;46278;-59
2023/06/09 06:22:13;;;;;;;;;22.50;21.25;;;;;23.43;38.89;100443.38;4979580;28;45458;-58
2023/06/09 06:24:38;;;;;;;;;22.50;18.75;;;;;23.45;38.56;100441.44;4981069;28;45770;-58
2023/06/09 06:27:04;;;;;;;;;25.25;22.50;;;;;23.49;39.11;100445.59;4981149;28;48418;-59
2023/06/09 06:29:30;;;;;;;;;22.75;21.75;;;;;23.50;38.78;100450.00;4982012;28;45418;-58
2023/06/09 06:31:55;;;;;;;;;21.50;20.25;;;;;23.48;39.14;100433.16;4981533;28;45220;-58
2023/06/09 06:34:21;;;;;;;;;24.50;24.00;;;;;23.56;38.73;100430.78;4981646;28;45810;-59
2023/06/09 06:36:46;;;;;;;;;22.75;22.00;;;;;23.61;38.79;100441.16;4971653;28;45435;-59
2023/06/09 06:39:12;;;;;;;;;24.00;22.75;;;;;23.66;38.80;100439.00;4981372;28;45984;-59
2023/06/09 06:41:38;;;;;;;;;59.25;47.25;;;;;23.71;38.77;100444.91;4968200;28;45374;-60
2023/06/09 06:44:03;;;;;;;;;26.00;26.00;;;;;23.73;38.87;100434.88;4973660;28;45449;-60
2023/06/09 06:46:30;;;;;;;;;22.25;22.25;;;;;23.77;38.63;100444.44;4960787;28;45403;-59
2023/06/09 06:48:55;;;;;;;;;25.00;23.00;;;;;23.80;39.69;100448.72;4968667;28;45477;-60
2023/06/09 06:51:20;;;;;;;;;23.25;22.00;;;;;23.85;38.94;100454.59;4963531;28;45460;-59
2023/06/09 06:53:46;;;;;;;;;22.25;22.25;;;;;23.88;38.90;100459.72;4966515;28;45294;-59
2023/06/09 06:56:11;;;;;;;;;22.50;18.50;;;;;23.90;39.23;100446.19;4961692;28;45745;-59
2023/06/09 06:58:36;;;;;;;;;22.00;21.25;;;;;23.97;39.09;100452.84;4961945;28;45281;-59
2023/06/09 07:01:03;;;;;;;;;16.75;15.00;;;;;24.00;38.65;100448.09;4961822;28;45227;-59
2023/06/09 07:03:28;;;;;;;;;18.75;17.75;;;;;24.05;38.89;100452.25;4962359;28;45355;-59
2023/06/09 07:05:53;;;;;;;;;21.00;19.25;;;;;24.08;38.73;100450.19;4961686;28;45529;-59
2023/06/09 07:08:19;;;;;;;;;17.75;16.50;;;;;24.10;38.82;100450.94;4958817;28;59336;-59
2023/06/09 07:10:45;;;;;;;;;22.00;20.50;;;;;24.12;38.35;100451.66;4966013;28;45311;-59
2023/06/09 07:13:11;;;;;;;;;16.00;16.00;;;;;24.12;38.70;100435.56;4962131;28;45239;-59
2023/06/09 07:15:37;;;;;;;;;24.25;22.25;;;;;24.23;38.75;100456.22;4961421;28;45289;-59
2023/06/09 07:18:03;;;;;;;;;22.50;20.25;;;;;24.25;38.29;100448.94;4961817;28;46195;-59
2023/06/09 07:20:28;;;;;;;;;19.00;19.00;;;;;24.31;38.50;100455.63;4964356;28;45160;-59
2023/06/09 07:22:54;;;;;;;;;20.00;19.50;;;;;24.36;38.37;100461.50;4962001;28;45241;-59
2023/06/09 07:25:20;;;;;;;;;22.50;21.00;;;;;24.38;38.31;100461.38;4974648;28;45593;-59
2023/06/09 07:27:46;;;;;;;;;19.25;18.50;;;;;24.42;38.43;100469.09;4980777;28;46155;-59
2023/06/09 07:30:12;;;;;;;;;20.75;19.00;;;;;24.48;38.17;100473.16;4980673;28;45570;-59
2023/06/09 07:32:39;;;;;;;;;21.50;19.25;;;;;24.51;38.30;100475.59;4977014;28;45479;-59
2023/06/09 07:35:04;;;;;;;;;20.75;19.25;;;;;24.53;38.26;100473.66;4962786;28;45544;-59
2023/06/09 07:37:31;;;;;;;;;21.50;21.00;;;;;24.58;38.21;100460.72;4968145;28;47240;-59
2023/06/09 07:39:56;;;;;;;;;20.50;18.75;;;;;24.62;37.97;100474.75;4980696;28;45218;-59
2023/06/09 07:42:22;;;;;;;;;18.50;18.50;;;;;24.63;38.34;100480.00;4982756;28;45247;-59
2023/06/09 07:44:47;;;;;;;;;20.50;19.25;;;;;24.66;37.86;100469.03;4968452;28;45179;-59
2023/06/09 07:47:12;;;;;;;;;20.50;20.50;;;;;24.72;38.06;100474.94;4960547;28;45254;-59
2023/06/09 07:49:38;;;;;;;;;18.50;17.00;;;;;24.70;38.06;100458.06;4961050;28;45222;-59
2023/06/09 07:52:04;;;;;;;;;17.75;17.00;;;;;24.80;38.02;100475.16;4961518;28;45242;-59
2023/06/09 07:54:29;;;;;;;;;21.75;20.50;;;;;24.82;37.86;100478.59;4960123;28;45464;-59
2023/06/09 07:56:55;;;;;;;;;19.25;18.00;;;;;24.87;38.00;100473.72;4960926;28;46180;-59
2023/06/09 07:59:21;;;;;;;;;23.00;21.50;;;;;24.90;38.14;100478.84;4960993;28;45310;-59
2023/06/09 08:01:46;;;;;;;;;19.25;19.25;;;;;24.94;37.91;100476.78;4961355;28;45494;-59
2023/06/09 08:04:12;;;;;;;;;22.50;21.50;;;;;24.97;37.94;100472.00;4961186;28;45372;-59
2023/06/09 08:06:38;;;;;;;;;20.75;20.75;;;;;25.02;37.54;100465.41;4960860;28;45425;-59
2023/06/09 08:09:04;;;;;;;;;22.50;21.00;;;;;25.03;37.78;100457.25;4960776;28;45322;-59
2023/06/09 08:11:29;;;;;;;;;20.00;17.75;;;;;25.09;38.00;100454.06;4961178;28;45322;-59
2023/06/09 08:13:55;;;;;;;;;24.00;19.75;;;;;25.13;37.98;100450.16;4959669;28;45454;-59
2023/06/09 08:16:20;;;;;;;;;22.50;19.00;;;;;25.18;38.01;100456.97;4960792;28;46156;-59
2023/06/09 08:18:45;;;;;;;;;23.00;21.00;;;;;25.21;37.98;100452.22;4963500;28;45150;-59
2023/06/09 08:21:11;;;;;;;;;23.75;22.00;;;;;25.27;37.51;100446.34;4973718;28;45255;-59
2023/06/09 08:23:37;;;;;;;;;20.75;19.50;;;;;25.31;37.57;100441.56;4960763;28;45292;-59
2023/06/09 08:26:02;;;;;;;;;22.25;20.50;;;;;25.35;37.54;100445.72;4959489;28;48360;-59
2023/06/09 08:28:28;;;;;;;;;21.00;20.50;;;;;25.40;37.67;100438.16;4960701;28;45223;-59
2023/06/09 08:30:53;;;;;;;;;21.25;20.25;;;;;25.44;37.67;100439.59;4960604;28;45223;-59
2023/06/09 08:33:19;;;;;;;;;24.25;21.50;;;;;25.46;37.37;100442.19;4959332;28;45536;-59
2023/06/09 08:35:44;;;;;;;;;19.25;18.50;;;;;25.53;37.60;100435.31;4959215;28;47401;-59
2023/06/09 08:38:09;;;;;;;;;23.00;21.00;;;;;25.57;37.73;100441.28;4960633;28;45176;-59
2023/06/09 08:40:35;;;;;;;;;21.50;19.75;;;;;25.63;37.19;100441.66;4960975;28;45381;-59
2023/06/09 08:43:03;;;;;;;;;16.00;14.25;;;;;25.67;37.75;100431.47;4973034;28;45290;-59
2023/06/09 08:45:33;;;;;;;;;18.25;17.25;;;;;25.73;37.27;100435.50;4960636;28;45481;-59
2023/06/09 08:48:00;;;;;;;;;20.00;19.75;;;;;25.78;37.79;100433.28;4960465;28;45335;-59
2023/06/09 08:50:30;;;;;;;;;19.00;18.00;;;;;25.82;37.47;100432.03;4960610;28;45481;-59
2023/06/09 08:52:56;;;;;;;;;18.75;18.75;;;;;25.88;37.41;100428.84;4960303;28;45521;-59
2023/06/09 08:55:22;;;;;;;;;19.75;19.75;;;;;25.92;37.15;100426.75;4960261;28;45254;-59
2023/06/09 08:57:49;;;;;;;;;20.75;19.00;;;;;25.99;37.46;100436.03;4960278;28;45180;-59
2023/06/09 09:00:15;;;;;;;;;21.25;20.00;;;;;26.05;37.06;100426.56;4960584;28;45291;-59
2023/06/09 09:02:41;;;;;;;;;21.50;17.75;;;;;26.09;37.25;100428.91;4958231;28;45468;-59
2023/06/09 09:05:07;;;;;;;;;22.25;22.00;;;;;26.13;37.36;100423.28;4959831;28;45346;-59
2023/06/09 09:07:32;;;;;;;;;19.50;19.50;;;;;26.20;36.99;100425.31;4960238;28;45426;-59
2023/06/09 09:10:00;;;;;;;;;18.75;18.75;;;;;26.27;37.37;100431.84;4960495;28;45313;-59
2023/06/09 09:12:26;;;;;;;;;19.75;18.00;;;;;26.32;37.40;100430.63;4975223;28;45369;-59
2023/06/09 09:14:51;;;;;;;;;18.50;18.50;;;;;26.36;37.03;100430.22;4960173;28;52023;-59
2023/06/09 09:17:17;;;;;;;;;20.50;20.25;;;;;26.46;36.88;100429.44;4974940;28;45391;-59
2023/06/09 09:19:47;;;;;;;;;21.50;20.00;;;;;26.49;36.77;100419.25;4970268;28;45333;-59
2023/06/09 09:22:13;;;;;;;;;17.25;16.50;;;;;26.58;37.30;100423.00;4965038;28;45289;-59
2023/06/09 09:24:46;;;;;;;;;21.00;19.50;;;;;26.64;37.27;100418.88;4959945;28;46327;-59
2023/06/09 09:27:23;;;;;;;;;21.50;16.50;;;;;26.71;36.94;100420.91;4959750;28;45315;-59
2023/06/09 09:29:48;;;;;;;;;16.00;16.00;;;;;26.77;37.07;100406.09;4975163;28;45410;-59
2023/06/09 09:32:15;;;;;;;;;19.75;19.00;;;;;26.86;37.36;100410.66;4961202;28;45481;-59
2023/06/09 09:34:44;;;;;;;;;18.00;18.00;;;;;26.93;36.54;100406.44;4963136;28;46226;-59
2023/06/09 09:37:10;;;;;;;;;13.25;13.00;;;;;27.01;37.02;100404.91;4961882;28;45378;-59
2023/06/09 09:39:47;;;;;;;;;19.00;19.00;;;;;27.09;36.95;100396.97;4963303;28;45442;-59
2023/06/09 09:42:14;;;;;;;;;16.00;14.25;;;;;27.15;36.32;100409.06;4992799;28;45367;-59
2023/06/09 09:44:41;;;;;;;;;19.25;18.00;;;;;27.23;36.38;100402.00;4963048;28;47192;-59
2023/06/09 09:47:08;;;;;;;;;22.75;19.25;;;;;27.31;36.44;100397.72;4962970;28;45239;-59
2023/06/09 09:49:34;;;;;;;;;19.50;18.50;;;;;27.32;36.67;100388.63;4962902;28;45216;-59
2023/06/09 09:52:00;;;;;;;;;17.75;17.25;;;;;27.44;36.31;100401.06;4962906;28;45321;-59
2023/06/09 09:54:28;;;;;;;;;20.50;18.75;;;;;27.51;36.23;100396.81;4961336;28;45545;-59
2023/06/09 09:56:58;;;;;;;;;16.50;16.50;;;;;27.59;36.52;100395.25;4962764;28;45437;-59
2023/06/09 09:59:26;;;;;;;;;15.50;15.00;;;;;27.68;36.66;100399.81;4962858;28;45283;-59
2023/06/09 10:01:55;;;;;;;;;18.75;18.75;;;;;27.72;35.96;100395.81;4961691;28;45283;-59
2023/06/09 10:04:23;;;;;;;;;20.00;19.00;;;;;27.81;35.95;100386.00;4962514;28;46275;-59
2023/06/09 10:06:53;;;;;;;;;17.25;17.25;;;;;27.90;36.24;100391.41;4962929;28;45360;-59
2023/06/09 10:09:21;;;;;;;;;17.75;16.50;;;;;28.00;35.67;100395.94;4962897;28;45351;-59
2023/06/09 10:11:47;;;;;;;;;18.25;17.75;;;;;28.08;36.01;100388.00;4961370;28;45442;-59
2023/06/09 10:14:13;;;;;;;;;19.25;17.75;;;;;28.16;35.62;100387.28;4962561;28;45517;-59
2023/06/09 10:16:38;;;;;;;;;17.25;16.25;;;;;28.26;35.91;100388.13;4962644;28;45288;-59
2023/06/09 10:19:04;;;;;;;;;17.75;16.75;;;;;28.36;35.86;100398.91;4968023;28;45477;-59
2023/06/09 10:21:31;;;;;;;;;16.25;15.25;;;;;28.46;35.26;100390.78;4973225;28;45463;-59
2023/06/09 10:23:58;;;;;;;;;16.00;16.00;;;;;28.54;35.67;100380.94;4962489;28;47052;-59
2023/06/09 10:26:24;;;;;;;;;16.75;15.25;;;;;28.65;35.72;100384.44;4961138;28;45308;-59
2023/06/09 10:28:49;;;;;;;;;23.00;20.00;;;;;28.77;35.50;100380.59;4962574;28;45349;-59
2023/06/09 10:31:17;;;;;;;;;20.00;17.50;;;;;28.90;35.33;100382.94;4962409;28;45374;-59
2023/06/09 10:33:45;;;;;;;;;15.50;14.00;;;;;29.08;35.80;100379.44;4945133;28;48910;-59
2023/06/09 10:36:10;;;;;;;;;17.50;17.50;;;;;29.28;35.55;100382.88;4960927;28;45469;-59
2023/06/09 10:38:42;;;;;;;;;17.00;16.25;;;;;29.50;35.36;100377.03;4962183;28;45321;-59
2023/06/09 10:41:32;;;;;;;;;16.75;16.25;;;;;29.83;35.66;100373.78;4970344;28;45239;-59
2023/06/09 10:43:58;;;;;;;;;19.50;18.75;;;;;30.17;35.40;100381.19;4967489;28;47558;-59
2023/06/09 10:46:43;;;;;;;;;15.75;15.25;;;;;30.54;35.17;100379.25;4981617;28;45259;-59
2023/06/09 10:49:35;;;;;;;;;18.50;17.75;;;;;30.89;34.87;100382.78;4997023;28;45517;-59
2023/06/09 10:52:01;;;;;;;;;15.75;15.00;;;;;31.19;35.17;100375.13;4981629;28;45430;-59
2023/06/09 10:54:28;;;;;;;;;19.25;18.50;;;;;31.46;34.61;100384.88;4981346;28;45954;-59
2023/06/09 10:56:56;;;;;;;;;20.00;18.50;;;;;31.69;34.65;100381.53;4980965;28;45274;-59
2023/06/09 10:59:24;;;;;;;;;16.50;15.25;;;;;31.86;34.34;100390.50;4980224;28;45342;-59
2023/06/09 11:01:59;;;;;;;;;16.50;15.75;;;;;32.00;34.20;100383.53;4981462;28;45223;-59
2023/06/09 11:04:45;;;;;;;;;17.00;16.25;;;;;32.09;34.00;100383.38;4981027;28;46452;-59
2023/06/09 11:07:25;;;;;;;;;16.50;16.00;;;;;32.17;33.25;100390.66;4981404;28;45377;-59
2023/06/09 11:09:51;;;;;;;;;17.75;17.75;;;;;32.21;33.20;100388.50;4981392;28;45441;-59